Time;durP1;ratioP1;P1;durP2;ratioP2;P2;SDS_P1;SDS_P2;PMS_P1;PMS_P2;Temp;Humidity;BMP_temperature;BMP_pressure;BME280_temperature;BME280_humidity;BME280_pressure;Samples;Min_cycle;Max_cycle;Signal;HPM_P1;HPM_P2
2021/05/15 00:00:30;;;;;;;0.50;0.50;;;21.60;56.00;;;;;;5092676;28;20633;-45
2021/05/15 00:02:56;;;;;;;0.70;0.38;;;21.60;55.80;;;;;;5098701;28;20058;-43
2021/05/15 00:05:22;;;;;;;0.68;0.50;;;21.60;55.90;;;;;;5112550;28;20595;-43
2021/05/15 00:07:48;;;;;;;0.73;0.40;;;21.60;56.10;;;;;;5109192;28;20023;-43
2021/05/15 00:10:14;;;;;;;0.65;0.40;;;21.60;55.80;;;;;;5109274;28;20084;-42
2021/05/15 00:12:39;;;;;;;1.58;0.40;;;21.60;55.80;;;;;;5106978;28;20039;-39
2021/05/15 00:15:06;;;;;;;0.60;0.45;;;21.60;56.20;;;;;;5090275;28;20040;-42
2021/05/15 00:17:33;;;;;;;0.60;0.38;;;21.50;56.10;;;;;;5109093;28;20070;-42
2021/05/15 00:19:58;;;;;;;0.85;0.60;;;21.50;56.20;;;;;;5109934;28;20185;-43
2021/05/15 00:22:24;;;;;;;0.85;0.30;;;21.50;56.10;;;;;;5107850;28;20465;-43
2021/05/15 00:24:49;;;;;;;0.55;0.40;;;21.50;56.20;;;;;;5103369;28;20101;-42
2021/05/15 00:27:15;;;;;;;0.52;0.38;;;21.50;56.00;;;;;;5108611;28;20644;-43
2021/05/15 00:29:40;;;;;;;0.80;0.50;;;21.50;56.20;;;;;;5109080;28;20070;-43
2021/05/15 00:32:06;;;;;;;0.55;0.47;;;21.50;56.30;;;;;;5110201;28;20432;-44
2021/05/15 00:34:32;;;;;;;0.88;0.50;;;21.50;56.20;;;;;;5108804;28;20040;-43
2021/05/15 00:36:57;;;;;;;0.60;0.60;;;21.40;56.10;;;;;;5108871;28;20024;-45
2021/05/15 00:39:23;;;;;;;0.20;0.20;;;21.50;56.20;;;;;;5107093;28;20075;-44
2021/05/15 00:41:49;;;;;;;0.52;0.30;;;21.40;56.70;;;;;;5107434;28;20032;-42
2021/05/15 00:46:49;;;;;;;0.90;0.35;;;21.40;56.10;;;;;;5105978;28;20667;-46
2021/05/15 00:49:14;;;;;;;0.50;0.32;;;21.50;56.10;;;;;;5109682;28;20106;-45
2021/05/15 00:51:40;;;;;;;1.42;0.30;;;21.50;56.20;;;;;;5107974;28;20478;-43
2021/05/15 00:54:05;;;;;;;0.20;0.20;;;21.50;56.30;;;;;;5090724;28;20073;-43
2021/05/15 00:56:31;;;;;;;0.75;0.40;;;21.50;56.00;;;;;;5087878;28;20023;-45
2021/05/15 00:58:57;;;;;;;1.40;0.32;;;21.40;56.10;;;;;;5105658;28;20540;-44
2021/05/15 01:01:23;;;;;;;0.57;0.30;;;21.40;56.20;;;;;;5108217;28;20024;-42
2021/05/15 01:03:49;;;;;;;0.50;0.30;;;21.50;56.10;;;;;;5108464;28;20034;-42
2021/05/15 01:06:14;;;;;;;0.30;0.30;;;21.50;56.30;;;;;;5090883;28;20030;-42
2021/05/15 01:08:45;;;;;;;0.30;0.30;;;21.40;56.00;;;;;;5110247;28;20036;-44
2021/05/15 01:11:12;;;;;;;0.25;0.25;;;21.40;56.00;;;;;;5110320;28;20030;-42
2021/05/15 01:13:38;;;;;;;0.40;0.30;;;21.40;56.20;;;;;;5110198;28;20047;-42
2021/05/15 01:16:03;;;;;;;1.02;0.40;;;21.40;56.90;;;;;;5110054;28;20106;-44
2021/05/15 01:18:29;;;;;;;0.40;0.40;;;21.40;56.20;;;;;;5091923;28;20075;-46
2021/05/15 01:21:01;;;;;;;0.32;0.32;;;21.40;56.00;;;;;;5109108;28;20486;-44
2021/05/15 01:23:27;;;;;;;2.42;0.45;;;21.40;55.90;;;;;;5102299;28;20032;-43
2021/05/15 01:25:53;;;;;;;0.47;0.40;;;21.40;56.00;;;;;;5099968;28;20035;-42
2021/05/15 01:28:18;;;;;;;0.50;0.32;;;21.40;56.00;;;;;;5105857;28;20165;-43
2021/05/15 01:30:44;;;;;;;1.58;0.28;;;21.40;56.10;;;;;;5107612;28;20060;-43
2021/05/15 01:33:09;;;;;;;0.30;0.20;;;21.40;56.20;;;;;;5107366;28;20122;-42
2021/05/15 01:35:35;;;;;;;1.77;0.30;;;21.40;56.10;;;;;;5108639;28;20024;-43
2021/05/15 01:38:01;;;;;;;0.40;0.40;;;21.40;56.10;;;;;;5085507;28;20063;-41
2021/05/15 01:40:27;;;;;;;0.55;0.40;;;21.40;56.20;;;;;;5109098;28;20054;-40
2021/05/15 01:42:53;;;;;;;0.35;0.20;;;21.40;56.30;;;;;;5108659;28;20077;-42
2021/05/15 01:45:18;;;;;;;0.28;0.28;;;21.40;56.30;;;;;;5109292;28;20023;-43
2021/05/15 01:47:44;;;;;;;0.75;0.52;;;21.40;56.20;;;;;;5109440;28;20664;-42
2021/05/15 01:50:13;;;;;;;0.43;0.40;;;21.40;56.30;;;;;;5093006;28;20016;-42
2021/05/15 01:52:39;;;;;;;0.43;0.43;;;21.40;56.10;;;;;;5091555;28;20027;-41
2021/05/15 01:55:15;;;;;;;0.55;0.30;;;21.40;56.10;;;;;;5108876;28;20038;-43
2021/05/15 01:57:40;;;;;;;0.57;0.40;;;21.40;56.30;;;;;;5109461;28;20027;-43
2021/05/15 02:00:06;;;;;;;1.25;0.43;;;21.40;56.30;;;;;;5109406;28;20038;-45
2021/05/15 02:02:32;;;;;;;0.98;0.30;;;21.30;56.20;;;;;;5109334;28;20022;-43
2021/05/15 02:04:58;;;;;;;0.38;0.38;;;21.40;56.20;;;;;;5109335;28;20393;-43
2021/05/15 02:07:23;;;;;;;1.20;0.43;;;21.40;56.10;;;;;;5090800;28;20059;-41
2021/05/15 02:09:49;;;;;;;0.40;0.30;;;21.40;56.30;;;;;;5090609;28;20031;-41
2021/05/15 02:12:14;;;;;;;0.35;0.22;;;21.40;56.20;;;;;;5090889;28;20023;-42
2021/05/15 02:14:40;;;;;;;0.50;0.50;;;21.40;56.10;;;;;;5088948;28;20040;-40
2021/05/15 02:17:05;;;;;;;0.20;0.20;;;21.40;56.20;;;;;;5092057;28;20047;-38
2021/05/15 02:19:31;;;;;;;0.65;0.47;;;21.30;56.40;;;;;;5087291;28;20099;-41
2021/05/15 02:21:56;;;;;;;0.30;0.30;;;21.40;57.20;;;;;;5108019;28;20095;-39
2021/05/15 02:24:22;;;;;;;0.73;0.50;;;21.30;56.70;;;;;;5109159;28;20486;-41
2021/05/15 02:26:47;;;;;;;0.70;0.45;;;21.40;57.60;;;;;;5108011;28;20066;-41
2021/05/15 02:29:13;;;;;;;1.02;0.50;;;21.40;57.10;;;;;;5110829;28;20039;-42
2021/05/15 02:31:38;;;;;;;0.60;0.50;;;21.40;57.30;;;;;;5108927;28;20023;-41
2021/05/15 02:34:04;;;;;;;0.63;0.50;;;21.40;57.10;;;;;;5067445;28;20098;-44
2021/05/15 02:36:30;;;;;;;0.60;0.50;;;21.40;57.90;;;;;;5097671;28;20504;-40
2021/05/15 02:38:57;;;;;;;0.85;0.50;;;21.40;57.30;;;;;;5092367;28;20544;-44
2021/05/15 02:41:22;;;;;;;1.60;0.70;;;21.40;57.30;;;;;;5109940;28;20508;-42
2021/05/15 02:43:48;;;;;;;0.40;0.40;;;21.40;57.40;;;;;;5108672;28;20055;-44
2021/05/15 02:46:13;;;;;;;0.30;0.30;;;21.40;57.30;;;;;;5108646;28;20528;-44
2021/05/15 02:48:39;;;;;;;0.50;0.50;;;21.30;57.40;;;;;;5108389;28;20031;-40
2021/05/15 02:51:05;;;;;;;0.22;0.20;;;21.40;57.30;;;;;;5109015;28;20045;-44
2021/05/15 02:53:30;;;;;;;0.52;0.50;;;21.40;57.30;;;;;;5110008;28;20069;-45
2021/05/15 02:55:56;;;;;;;0.60;0.40;;;21.40;57.40;;;;;;5114045;28;20070;-46
2021/05/15 02:58:21;;;;;;;0.40;0.30;;;21.40;57.40;;;;;;5094624;28;20035;-43
2021/05/15 03:00:47;;;;;;;0.73;0.60;;;21.40;57.40;;;;;;5112869;28;20106;-39
2021/05/15 03:03:12;;;;;;;0.55;0.55;;;21.40;57.30;;;;;;5112805;28;20026;-41
2021/05/15 03:05:38;;;;;;;0.30;0.30;;;21.40;57.50;;;;;;5094050;28;20028;-38
2021/05/15 03:08:04;;;;;;;0.50;0.40;;;21.40;57.50;;;;;;5114090;28;20106;-41
2021/05/15 03:10:29;;;;;;;0.57;0.43;;;21.40;57.40;;;;;;5112054;28;20036;-40
2021/05/15 03:12:55;;;;;;;0.80;0.70;;;21.30;57.30;;;;;;5111419;28;20073;-42
2021/05/15 03:15:21;;;;;;;0.40;0.38;;;21.30;57.20;;;;;;5112516;28;20035;-41
2021/05/15 03:17:47;;;;;;;0.45;0.30;;;21.30;57.40;;;;;;5093742;28;20040;-42
2021/05/15 03:20:15;;;;;;;0.40;0.30;;;21.30;57.40;;;;;;5113815;28;20024;-44
2021/05/15 03:22:41;;;;;;;0.50;0.40;;;21.30;57.30;;;;;;5090856;28;20032;-43
2021/05/15 03:25:07;;;;;;;0.52;0.43;;;21.30;57.30;;;;;;5104949;28;20069;-42
2021/05/15 03:27:33;;;;;;;0.40;0.30;;;21.30;57.40;;;;;;5111880;28;20024;-43
2021/05/15 03:29:58;;;;;;;0.60;0.45;;;21.30;57.30;;;;;;5112513;28;20038;-44
2021/05/15 03:32:24;;;;;;;0.60;0.40;;;21.30;57.30;;;;;;5114020;28;20076;-43
2021/05/15 03:34:49;;;;;;;0.40;0.30;;;21.30;57.30;;;;;;5111854;28;20088;-43
2021/05/15 03:37:15;;;;;;;0.52;0.30;;;21.20;57.10;;;;;;5111513;28;20016;-43
2021/05/15 03:39:40;;;;;;;0.30;0.30;;;21.20;57.30;;;;;;5093508;28;20700;-42
2021/05/15 03:42:06;;;;;;;0.40;0.40;;;21.20;57.20;;;;;;5111578;28;20054;-43
2021/05/15 03:44:31;;;;;;;0.70;0.35;;;21.20;57.20;;;;;;5112238;28;20435;-41
2021/05/15 03:46:57;;;;;;;0.57;0.35;;;21.20;57.20;;;;;;5113334;28;20023;-43
2021/05/15 03:49:23;;;;;;;1.02;0.40;;;21.20;57.30;;;;;;5111395;28;20031;-43
2021/05/15 03:51:48;;;;;;;0.50;0.20;;;21.20;57.30;;;;;;5111002;28;20439;-44
2021/05/15 03:54:14;;;;;;;0.50;0.40;;;21.20;57.20;;;;;;5109770;28;20035;-43
2021/05/15 03:56:39;;;;;;;1.48;0.50;;;21.20;57.30;;;;;;5111873;28;20495;-38
2021/05/15 03:59:05;;;;;;;0.40;0.32;;;21.20;57.20;;;;;;5091527;28;20028;-39
2021/05/15 04:01:31;;;;;;;0.20;0.20;;;21.20;57.40;;;;;;5108391;28;20027;-37
2021/05/15 04:03:57;;;;;;;0.63;0.40;;;21.20;57.80;;;;;;5111525;28;20032;-40
2021/05/15 04:06:22;;;;;;;0.32;0.30;;;21.20;57.10;;;;;;5090982;28;20049;-41
2021/05/15 04:08:48;;;;;;;0.50;0.30;;;21.20;57.30;;;;;;5110660;28;20439;-40
2021/05/15 04:11:13;;;;;;;0.90;0.30;;;21.20;57.10;;;;;;5091628;28;20032;-42
2021/05/15 04:18:39;;;;;;;0.80;0.70;;;21.20;57.10;;;;;;5111449;28;20035;-42
2021/05/15 04:21:05;;;;;;;0.32;0.30;;;21.20;57.20;;;;;;5110583;28;20027;-42
2021/05/15 04:23:30;;;;;;;0.30;0.20;;;21.20;57.10;;;;;;5092856;28;20073;-43
2021/05/15 04:25:56;;;;;;;0.40;0.30;;;21.20;57.20;;;;;;5111882;28;20103;-40
2021/05/15 04:28:23;;;;;;;0.45;0.30;;;21.20;57.20;;;;;;5111075;28;20038;-40
2021/05/15 04:30:49;;;;;;;0.68;0.40;;;21.10;57.00;;;;;;5110690;28;20557;-44
2021/05/15 04:33:14;;;;;;;0.38;0.38;;;21.20;57.10;;;;;;5110452;28;20114;-42
2021/05/15 04:35:40;;;;;;;0.90;0.50;;;21.10;57.20;;;;;;5110031;28;20085;-42
2021/05/15 04:38:06;;;;;;;0.68;0.57;;;21.10;57.20;;;;;;5111908;28;20083;-41
2021/05/15 04:40:32;;;;;;;1.05;0.45;;;21.20;57.10;;;;;;5092952;28;20114;-40
2021/05/15 04:42:57;;;;;;;0.40;0.40;;;21.10;57.10;;;;;;5110412;28;20482;-41
2021/05/15 04:45:23;;;;;;;0.60;0.50;;;21.20;57.20;;;;;;5092377;28;20072;-42
2021/05/15 04:47:49;;;;;;;0.68;0.40;;;21.20;57.10;;;;;;5110754;28;20028;-43
2021/05/15 04:50:14;;;;;;;1.10;0.50;;;21.20;57.10;;;;;;5082167;28;20066;-42
2021/05/15 04:52:40;;;;;;;0.63;0.50;;;21.10;57.10;;;;;;5102361;28;20032;-40
2021/05/15 04:55:06;;;;;;;1.00;0.60;;;21.10;57.00;;;;;;5081093;28;20043;-42
2021/05/15 04:57:32;;;;;;;0.73;0.40;;;21.10;57.20;;;;;;5101226;28;20028;-40
2021/05/15 04:59:57;;;;;;;0.43;0.43;;;21.10;57.20;;;;;;5110184;28;20038;-40
2021/05/15 05:02:23;;;;;;;0.63;0.43;;;21.10;57.10;;;;;;5111801;28;20054;-43
2021/05/15 05:04:48;;;;;;;0.85;0.50;;;21.10;57.80;;;;;;5110102;28;20027;-40
2021/05/15 05:07:14;;;;;;;1.20;0.60;;;21.10;57.00;;;;;;5091850;28;20046;-44
2021/05/15 05:09:40;;;;;;;0.85;0.60;;;21.10;57.00;;;;;;5108722;28;20457;-43
2021/05/15 05:12:06;;;;;;;0.63;0.50;;;21.10;56.90;;;;;;5109554;28;20019;-42
2021/05/15 05:14:31;;;;;;;1.27;0.50;;;21.10;57.00;;;;;;5110277;28;20036;-44
2021/05/15 05:16:57;;;;;;;1.10;0.50;;;21.10;57.00;;;;;;5093137;28;20020;-42
2021/05/15 05:19:23;;;;;;;1.02;0.70;;;21.10;57.10;;;;;;5110171;28;20504;-42
2021/05/15 05:21:49;;;;;;;0.43;0.40;;;21.10;57.10;;;;;;5107894;28;20379;-43
2021/05/15 05:24:15;;;;;;;1.30;0.47;;;21.10;57.20;;;;;;5102883;28;20115;-44
2021/05/15 05:26:40;;;;;;;0.80;0.50;;;21.10;57.20;;;;;;5102289;28;20445;-43
2021/05/15 05:29:09;;;;;;;0.73;0.50;;;21.00;57.10;;;;;;5105997;28;20020;-43
2021/05/15 05:31:35;;;;;;;1.08;0.60;;;21.10;57.20;;;;;;5100853;28;20107;-42
2021/05/15 05:34:01;;;;;;;0.75;0.70;;;21.10;57.20;;;;;;5106973;28;20035;-43
2021/05/15 05:36:27;;;;;;;1.15;0.60;;;21.10;57.10;;;;;;5101552;28;20043;-42
2021/05/15 05:38:52;;;;;;;0.52;0.52;;;21.00;57.80;;;;;;5103017;28;20425;-43
2021/05/15 05:41:20;;;;;;;0.90;0.70;;;21.10;57.20;;;;;;5106145;28;20292;-41
2021/05/15 05:43:45;;;;;;;0.80;0.63;;;21.00;57.10;;;;;;5104017;28;20085;-40
2021/05/15 05:46:11;;;;;;;1.50;0.77;;;21.10;57.10;;;;;;5106439;28;20031;-41
2021/05/15 05:48:37;;;;;;;1.40;0.93;;;21.10;57.30;;;;;;5106699;28;20020;-40
2021/05/15 05:51:02;;;;;;;0.82;0.60;;;21.10;57.30;;;;;;5104250;28;20031;-38
2021/05/15 05:53:28;;;;;;;4.18;0.70;;;21.20;57.10;;;;;;5104183;28;20050;-42
2021/05/15 05:55:53;;;;;;;0.82;0.60;;;21.30;57.10;;;;;;5109639;28;20035;-43
2021/05/15 05:58:19;;;;;;;1.30;0.45;;;21.50;56.60;;;;;;5108027;28;20057;-42
2021/05/15 06:00:44;;;;;;;0.60;0.50;;;21.60;56.30;;;;;;5108744;28;20112;-40
2021/05/15 06:03:10;;;;;;;2.35;0.90;;;21.70;56.10;;;;;;5089774;28;20019;-41
2021/05/15 06:05:36;;;;;;;0.75;0.68;;;21.80;55.70;;;;;;5109352;28;20066;-40
2021/05/15 06:08:08;;;;;;;1.27;0.60;;;21.90;55.90;;;;;;5110655;28;20020;-42
2021/05/15 06:10:35;;;;;;;1.23;0.80;;;22.00;55.90;;;;;;5099188;28;20063;-43
2021/05/15 06:13:01;;;;;;;1.25;0.93;;;21.80;55.80;;;;;;5106894;28;20019;-47
2021/05/15 06:15:27;;;;;;;0.52;0.50;;;21.80;55.60;;;;;;5107696;28;20062;-41
2021/05/15 06:17:53;;;;;;;0.82;0.60;;;21.60;55.80;;;;;;5107829;28;20047;-40
2021/05/15 06:20:18;;;;;;;0.93;0.70;;;21.60;55.80;;;;;;5108220;28;20694;-40
2021/05/15 06:22:44;;;;;;;2.88;0.88;;;21.70;56.00;;;;;;5087820;28;20043;-40
2021/05/15 06:25:10;;;;;;;1.80;1.02;;;21.80;56.10;;;;;;5107981;28;20385;-39
2021/05/15 06:27:36;;;;;;;1.60;1.10;;;21.80;55.90;;;;;;5096665;28;20043;-41
2021/05/15 06:30:01;;;;;;;1.10;0.70;;;21.80;56.10;;;;;;5104181;28;20023;-44
2021/05/15 06:32:27;;;;;;;0.82;0.80;;;21.80;56.20;;;;;;5104109;28;20035;-41
2021/05/15 06:34:52;;;;;;;3.30;0.98;;;21.70;56.90;;;;;;5101984;28;20632;-42
2021/05/15 06:37:18;;;;;;;3.45;1.02;;;21.80;56.60;;;;;;5102753;28;20024;-41
2021/05/15 06:39:43;;;;;;;1.30;0.77;;;21.90;56.20;;;;;;5101935;28;20119;-43
2021/05/15 06:42:09;;;;;;;3.38;1.20;;;21.90;57.10;;;;;;5101835;28;20028;-41
2021/05/15 06:44:35;;;;;;;1.98;1.10;;;21.90;56.60;;;;;;5108060;28;20028;-41
2021/05/15 06:47:00;;;;;;;1.75;1.27;;;21.80;56.20;;;;;;5103165;28;20028;-40
2021/05/15 06:49:26;;;;;;;3.63;1.25;;;21.90;56.30;;;;;;5101909;28;20502;-40
2021/05/15 06:51:52;;;;;;;1.85;1.15;;;22.00;56.50;;;;;;5103186;28;20065;-41
2021/05/15 06:54:18;;;;;;;2.75;1.17;;;22.00;56.30;;;;;;5100845;28;20024;-43
2021/05/15 06:56:43;;;;;;;3.42;1.52;;;21.90;56.30;;;;;;5102485;28;20032;-42
2021/05/15 06:59:09;;;;;;;3.78;1.30;;;21.90;56.40;;;;;;5089238;28;20039;-40
2021/05/15 07:01:34;;;;;;;1.90;1.20;;;21.90;56.30;;;;;;5107114;28;20028;-41
2021/05/15 07:04:00;;;;;;;3.45;1.80;;;21.80;56.80;;;;;;5107447;28;20053;-39
2021/05/15 07:06:26;;;;;;;2.35;1.92;;;21.90;56.80;;;;;;5088815;28;20024;-40
2021/05/15 07:08:51;;;;;;;3.65;1.58;;;21.70;56.70;;;;;;5107955;28;20030;-40
2021/05/15 07:11:17;;;;;;;2.88;1.52;;;21.60;57.60;;;;;;5110226;28;20016;-40
2021/05/15 07:13:42;;;;;;;3.30;1.63;;;21.70;57.40;;;;;;5107751;28;20027;-40
2021/05/15 07:16:08;;;;;;;2.08;1.45;;;21.60;57.60;;;;;;5106919;28;20104;-41
2021/05/15 07:18:33;;;;;;;4.38;2.55;;;21.70;57.30;;;;;;5108138;28;20031;-39
2021/05/15 07:20:59;;;;;;;4.05;2.28;;;21.70;57.40;;;;;;5108458;28;20118;-40
2021/05/15 07:23:25;;;;;;;2.70;2.03;;;21.70;57.40;;;;;;5110070;28;20110;-40
2021/05/15 07:25:50;;;;;;;3.75;2.08;;;21.80;57.10;;;;;;5108288;28;20085;-39
2021/05/15 07:28:16;;;;;;;5.60;2.05;;;21.70;57.20;;;;;;5105956;28;20047;-41
2021/05/15 07:30:42;;;;;;;4.78;2.50;;;21.80;56.80;;;;;;5085882;28;20028;-48
2021/05/15 07:33:07;;;;;;;5.13;2.47;;;21.90;56.50;;;;;;5108036;28;20443;-40
2021/05/15 07:35:33;;;;;;;9.18;2.65;;;22.00;56.30;;;;;;5108271;28;20036;-44
2021/05/15 07:37:59;;;;;;;4.45;2.50;;;22.10;56.10;;;;;;5085245;28;20044;-39
2021/05/15 07:40:24;;;;;;;5.30;2.65;;;22.10;55.80;;;;;;5103455;28;20103;-43
2021/05/15 07:42:50;;;;;;;5.97;2.70;;;22.20;55.80;;;;;;5110688;28;20019;-42
2021/05/15 07:45:16;;;;;;;6.30;2.80;;;22.20;55.60;;;;;;5098514;28;20561;-42
2021/05/15 07:47:42;;;;;;;4.80;2.70;;;22.20;55.60;;;;;;5093246;28;20027;-41
2021/05/15 07:50:08;;;;;;;3.95;2.38;;;22.20;55.60;;;;;;5113361;28;20042;-42
2021/05/15 07:52:33;;;;;;;7.53;3.38;;;22.20;55.50;;;;;;5111031;28;20067;-42
2021/05/15 07:54:59;;;;;;;6.20;3.00;;;22.20;55.50;;;;;;5070183;28;20067;-42
2021/05/15 07:57:25;;;;;;;9.20;3.40;;;22.20;55.50;;;;;;5099123;28;20489;-42
2021/05/15 07:59:51;;;;;;;6.90;3.60;;;22.20;55.60;;;;;;5111904;28;20058;-41
2021/05/15 08:02:16;;;;;;;6.20;3.42;;;22.20;55.40;;;;;;5112742;28;20051;-40
2021/05/15 08:04:42;;;;;;;8.15;3.50;;;22.20;55.20;;;;;;5111492;28;20020;-42
2021/05/15 08:07:07;;;;;;;7.18;3.13;;;22.20;55.20;;;;;;5093335;28;20041;-43
2021/05/15 08:09:33;;;;;;;7.10;3.78;;;22.30;55.80;;;;;;5110609;28;20031;-40
2021/05/15 08:11:59;;;;;;;6.13;3.35;;;22.20;55.10;;;;;;5111793;28;20051;-40
2021/05/15 08:14:24;;;;;;;7.55;3.60;;;22.20;55.20;;;;;;5090782;28;20035;-42
2021/05/15 08:16:50;;;;;;;6.60;3.25;;;22.20;55.20;;;;;;5103462;28;20024;-44
2021/05/15 08:19:15;;;;;;;6.45;3.50;;;22.20;55.20;;;;;;5100327;28;20719;-42
2021/05/15 08:21:41;;;;;;;8.57;3.60;;;22.20;55.10;;;;;;5097325;28;20068;-44
2021/05/15 08:24:07;;;;;;;6.63;3.55;;;22.20;55.10;;;;;;5101928;28;20024;-44
2021/05/15 08:26:33;;;;;;;5.88;3.30;;;22.20;55.10;;;;;;5105621;28;20028;-42
2021/05/15 08:29:00;;;;;;;7.72;3.67;;;22.20;55.00;;;;;;5107768;28;20031;-45
2021/05/15 08:31:26;;;;;;;6.25;3.40;;;22.20;54.90;;;;;;5101624;28;20065;-47
2021/05/15 08:33:51;;;;;;;6.70;3.63;;;22.30;54.80;;;;;;5088079;28;20419;-42
2021/05/15 08:36:17;;;;;;;9.45;3.38;;;22.30;54.90;;;;;;5087760;28;20052;-45
2021/05/15 08:38:43;;;;;;;8.10;3.78;;;22.30;54.90;;;;;;5094778;28;20047;-46
2021/05/15 08:41:08;;;;;;;7.68;3.65;;;22.30;54.80;;;;;;5104347;28;20030;-45
2021/05/15 08:43:36;;;;;;;7.60;3.42;;;22.20;54.80;;;;;;5097315;28;20047;-45
2021/05/15 08:46:03;;;;;;;9.27;3.85;;;22.10;55.00;;;;;;5080295;28;20041;-44
2021/05/15 08:48:32;;;;;;;6.03;3.05;;;22.10;55.10;;;;;;5095144;28;20572;-43
2021/05/15 08:51:00;;;;;;;7.43;3.55;;;22.00;55.50;;;;;;5092907;28;20031;-45
2021/05/15 08:53:26;;;;;;;8.18;3.90;;;21.90;55.70;;;;;;5062033;28;20513;-44
2021/05/15 08:55:52;;;;;;;8.90;3.90;;;21.90;56.50;;;;;;5082480;28;20047;-44
2021/05/15 08:58:18;;;;;;;7.47;3.55;;;21.80;56.60;;;;;;5095513;28;20518;-41
2021/05/15 09:00:44;;;;;;;9.93;3.70;;;21.80;56.60;;;;;;5079852;28;20092;-45
2021/05/15 09:03:11;;;;;;;8.07;3.60;;;21.80;56.80;;;;;;5080306;28;20146;-42
2021/05/15 09:05:38;;;;;;;9.27;3.70;;;21.70;57.50;;;;;;5094014;28;20028;-42
2021/05/15 09:08:06;;;;;;;12.05;4.30;;;21.60;57.50;;;;;;5098146;28;20106;-44
2021/05/15 09:10:33;;;;;;;8.73;3.85;;;21.50;59.10;;;;;;5098177;28;20028;-40
2021/05/15 09:13:28;;;;;;;7.18;3.40;;;21.60;58.00;;;;;;5097985;28;20028;-44
2021/05/15 09:15:57;;;;;;;7.88;3.90;;;21.70;59.40;;;;;;5095150;28;20035;-40
2021/05/15 09:18:27;;;;;;;9.35;3.92;;;21.70;57.90;;;;;;5082727;28;20024;-42
2021/05/15 09:20:54;;;;;;;8.13;3.67;;;21.70;59.20;;;;;;5094831;28;20024;-44
2021/05/15 09:23:28;;;;;;;6.95;3.35;;;21.70;58.00;;;;;;5099793;28;20076;-42
2021/05/15 09:26:04;;;;;;;8.52;3.90;;;21.90;57.80;;;;;;5081677;28;20110;-41
2021/05/15 09:28:44;;;;;;;9.23;3.63;;;22.00;57.70;;;;;;5099944;28;20039;-42
2021/05/15 09:31:20;;;;;;;10.02;4.00;;;21.80;59.10;;;;;;5095338;28;20032;-42
2021/05/15 09:33:48;;;;;;;11.10;4.05;;;21.70;59.30;;;;;;5094766;28;20051;-44
2021/05/15 09:36:15;;;;;;;9.23;3.90;;;21.70;59.50;;;;;;5094552;28;20030;-41
2021/05/15 09:38:41;;;;;;;8.98;3.90;;;21.80;58.50;;;;;;5109568;28;20048;-40
2021/05/15 09:41:07;;;;;;;8.68;3.70;;;22.00;58.00;;;;;;5092957;28;20108;-41
2021/05/15 09:43:32;;;;;;;6.10;3.35;;;22.10;57.60;;;;;;5087696;28;20020;-42
2021/05/15 09:45:58;;;;;;;7.57;3.85;;;22.20;57.50;;;;;;5101612;28;20169;-42
2021/05/15 09:48:35;;;;;;;9.98;4.07;;;22.30;57.30;;;;;;5091579;28;20023;-41
2021/05/15 09:51:17;;;;;;;8.90;3.53;;;22.30;57.50;;;;;;5093899;28;20494;-40
2021/05/15 09:53:43;;;;;;;6.45;3.53;;;22.30;57.70;;;;;;5091441;28;20031;-40
2021/05/15 09:56:09;;;;;;;7.78;3.78;;;22.10;58.10;;;;;;5110955;28;20085;-42
2021/05/15 09:58:34;;;;;;;8.15;3.75;;;22.20;57.90;;;;;;5108936;28;20028;-40
2021/05/15 10:01:00;;;;;;;8.07;3.50;;;22.20;58.30;;;;;;5109530;28;20406;-44
2021/05/15 10:03:27;;;;;;;6.75;3.50;;;22.10;58.60;;;;;;5073143;28;20565;-39
2021/05/15 10:06:07;;;;;;;7.45;3.47;;;22.00;59.20;;;;;;5109105;28;20023;-40
2021/05/15 10:08:34;;;;;;;10.02;3.28;;;22.00;59.00;;;;;;5102185;28;20030;-42
2021/05/15 10:11:00;;;;;;;6.82;3.38;;;22.20;58.90;;;;;;5109674;28;20034;-43
2021/05/15 10:13:26;;;;;;;8.60;4.07;;;22.40;58.40;;;;;;5108705;28;20564;-40
2021/05/15 10:15:52;;;;;;;9.50;4.32;;;22.40;58.50;;;;;;5102083;28;20031;-43
2021/05/15 10:18:18;;;;;;;11.70;3.92;;;22.20;59.60;;;;;;5094184;28;20434;-44
2021/05/15 10:20:44;;;;;;;9.15;3.50;;;22.00;60.10;;;;;;5092220;28;20109;-42
2021/05/15 10:23:21;;;;;;;6.70;3.50;;;21.90;60.50;;;;;;5089966;28;20034;-45
2021/05/15 10:25:46;;;;;;;6.70;3.65;;;21.90;60.30;;;;;;5097046;28;20038;-42
2021/05/15 10:28:15;;;;;;;7.22;3.78;;;21.90;59.60;;;;;;5075842;28;20028;-42
2021/05/15 10:30:40;;;;;;;10.10;4.03;;;21.90;59.50;;;;;;5076762;28;20069;-43
2021/05/15 10:33:07;;;;;;;6.72;3.83;;;21.90;59.40;;;;;;5092679;28;20031;-43
2021/05/15 10:35:40;;;;;;;9.50;3.83;;;21.90;59.20;;;;;;5078214;28;20532;-46
2021/05/15 10:38:16;;;;;;;7.82;4.10;;;21.90;59.70;;;;;;5101283;28;20059;-42
2021/05/15 10:40:49;;;;;;;8.93;3.70;;;22.00;58.80;;;;;;4733681;28;10000538;-44
2021/05/15 10:43:29;;;;;;;7.60;3.80;;;22.00;58.90;;;;;;5078358;28;20745;-43
2021/05/15 10:45:54;;;;;;;11.80;4.00;;;22.00;59.20;;;;;;5094048;28;20042;-39
2021/05/15 10:48:23;;;;;;;7.38;3.50;;;22.00;58.90;;;;;;5089210;28;20035;-44
2021/05/15 10:50:51;;;;;;;6.15;3.60;;;22.00;58.90;;;;;;5096938;28;20028;-40
2021/05/15 10:53:27;;;;;;;10.45;4.10;;;22.00;58.90;;;;;;5089385;28;20414;-42
2021/05/15 10:56:11;;;;;;;9.57;3.55;;;22.10;58.80;;;;;;5092587;28;20563;-42
2021/05/15 10:58:51;;;;;;;8.60;3.83;;;22.10;58.60;;;;;;5091261;28;20081;-43
2021/05/15 11:01:17;;;;;;;6.35;3.10;;;22.10;58.60;;;;;;5074972;28;20032;-43
2021/05/15 11:03:43;;;;;;;9.60;3.80;;;22.20;58.80;;;;;;5090234;28;20063;-44
2021/05/15 11:06:16;;;;;;;9.07;4.40;;;22.20;58.40;;;;;;5090244;28;20474;-42
2021/05/15 11:08:42;;;;;;;7.75;3.78;;;22.20;58.40;;;;;;5088987;28;20389;-45
2021/05/15 11:11:10;;;;;;;8.63;3.22;;;22.20;58.70;;;;;;5097420;28;20024;-44
2021/05/15 11:13:49;;;;;;;6.53;3.38;;;22.20;58.70;;;;;;5094853;28;20070;-49
2021/05/15 11:16:14;;;;;;;6.38;3.00;;;22.20;58.80;;;;;;5097791;28;20036;-44
2021/05/15 11:18:40;;;;;;;5.90;3.30;;;22.20;58.70;;;;;;5095507;28;20028;-45
2021/05/15 11:21:06;;;;;;;5.68;2.97;;;22.30;58.80;;;;;;5081657;28;20038;-39
2021/05/15 11:23:35;;;;;;;6.22;3.50;;;22.40;58.70;;;;;;5094262;28;20109;-42
2021/05/15 11:26:03;;;;;;;9.18;3.25;;;22.30;59.30;;;;;;5100644;28;20030;-40
2021/05/15 11:28:29;;;;;;;7.50;3.38;;;22.30;58.70;;;;;;5099191;28;20028;-45
2021/05/15 11:30:55;;;;;;;7.57;3.08;;;22.30;58.70;;;;;;5104049;28;20032;-44
2021/05/15 11:33:22;;;;;;;5.90;3.20;;;22.30;58.50;;;;;;5095608;28;20080;-41
2021/05/15 11:35:51;;;;;;;6.03;3.10;;;22.30;58.10;;;;;;5096074;28;20027;-46
2021/05/15 11:38:24;;;;;;;5.47;2.55;;;22.50;57.20;;;;;;5099745;28;20036;-45
2021/05/15 11:40:49;;;;;;;5.45;3.08;;;22.70;56.60;;;;;;5102437;28;20106;-46
2021/05/15 11:43:19;;;;;;;6.30;2.85;;;22.80;56.20;;;;;;5102983;28;20107;-45
2021/05/15 11:45:45;;;;;;;4.72;3.17;;;22.90;56.30;;;;;;5098352;28;20126;-44
2021/05/15 11:48:21;;;;;;;4.35;2.67;;;22.80;56.40;;;;;;5093791;28;20103;-46
2021/05/15 11:51:18;;;;;;;4.25;2.78;;;22.80;56.60;;;;;;5096949;28;20036;-45
2021/05/15 11:53:50;;;;;;;5.05;2.67;;;22.80;57.50;;;;;;5089420;28;20051;-46
2021/05/15 11:56:17;;;;;;;4.70;2.50;;;22.90;56.40;;;;;;5098251;28;20035;-45
2021/05/15 11:58:54;;;;;;;4.90;2.80;;;23.10;56.40;;;;;;5078715;28;20107;-46
2021/05/15 12:01:21;;;;;;;6.20;2.95;;;23.20;56.40;;;;;;5098834;28;20020;-45
2021/05/15 12:03:46;;;;;;;4.97;3.00;;;23.20;55.90;;;;;;5096790;28;20036;-43
2021/05/15 12:06:14;;;;;;;5.50;2.97;;;23.20;55.80;;;;;;5093441;28;20107;-45
2021/05/15 12:08:40;;;;;;;4.68;2.97;;;23.10;55.80;;;;;;5082473;28;20036;-44
2021/05/15 12:11:05;;;;;;;4.65;3.05;;;23.30;55.60;;;;;;5099195;28;20027;-46
2021/05/15 12:13:31;;;;;;;4.18;2.30;;;23.30;55.20;;;;;;5098996;28;20032;-44
2021/05/15 12:15:56;;;;;;;3.88;2.30;;;23.30;55.00;;;;;;5079346;28;20497;-44
2021/05/15 12:18:22;;;;;;;4.43;2.22;;;23.30;55.70;;;;;;5094584;28;20491;-44
2021/05/15 12:20:49;;;;;;;5.03;2.78;;;23.30;55.10;;;;;;5091936;28;20561;-46
2021/05/15 12:23:22;;;;;;;3.95;2.53;;;23.30;55.00;;;;;;5091562;28;20068;-49
2021/05/15 12:26:01;;;;;;;4.97;2.80;;;23.20;55.30;;;;;;5096392;28;20114;-46
2021/05/15 12:28:29;;;;;;;3.42;2.50;;;23.00;56.30;;;;;;5098247;28;20073;-48
2021/05/15 12:30:55;;;;;;;4.53;2.83;;;22.90;55.90;;;;;;5084356;28;20024;-45
2021/05/15 12:33:22;;;;;;;4.72;2.42;;;23.10;55.60;;;;;;5073164;28;20036;-46
2021/05/15 12:36:08;;;;;;;3.85;2.13;;;23.20;55.30;;;;;;5091056;28;20683;-47
2021/05/15 12:38:46;;;;;;;6.75;2.40;;;23.40;55.30;;;;;;5093585;28;20052;-44
2021/05/15 12:41:21;;;;;;;4.38;2.50;;;23.10;56.00;;;;;;5093070;28;20665;-45
2021/05/15 12:43:47;;;;;;;3.30;2.40;;;23.10;55.70;;;;;;5087230;28;20027;-48
2021/05/15 12:46:15;;;;;;;3.40;2.10;;;23.10;55.80;;;;;;5098559;28;20063;-45
2021/05/15 12:48:57;;;;;;;4.80;2.50;;;23.10;55.80;;;;;;5100911;28;20394;-47
2021/05/15 12:51:34;;;;;;;4.60;2.60;;;22.90;56.00;;;;;;5075217;28;20035;-44